createdAt,value
2023-06-18T00:00:12.287Z,5.07
2023-06-18T00:02:38.956Z,5.70
2023-06-18T00:05:06.498Z,5.60
2023-06-18T00:07:32.915Z,5.45
2023-06-18T00:09:59.403Z,5.75
2023-06-18T00:12:25.955Z,5.40
2023-06-18T00:14:52.367Z,5.60
2023-06-18T00:17:18.863Z,5.45
2023-06-18T00:19:45.430Z,5.95
2023-06-18T00:22:16.115Z,5.25
2023-06-18T00:24:42.611Z,5.97
2023-06-18T00:27:09.048Z,5.63
2023-06-18T00:29:36.807Z,6.22
2023-06-18T00:32:03.378Z,5.85
2023-06-18T00:34:34.260Z,6.00
2023-06-18T00:37:01.409Z,6.23
2023-06-18T00:39:28.057Z,6.57
2023-06-18T00:41:54.599Z,6.03
2023-06-18T00:44:23.721Z,6.20
2023-06-18T00:46:52.437Z,5.55
2023-06-18T00:49:19.816Z,6.47
2023-06-18T00:51:47.455Z,6.97
2023-06-18T00:54:16.606Z,6.75
2023-06-18T00:56:51.951Z,6.70
2023-06-18T00:59:22.444Z,7.00
2023-06-18T01:01:58.557Z,6.63
2023-06-18T01:04:30.510Z,6.45
2023-06-18T01:06:58.745Z,6.22
2023-06-18T01:09:27.869Z,7.10
2023-06-18T01:11:55.042Z,6.63
2023-06-18T01:14:23.679Z,6.70
2023-06-18T01:16:50.924Z,6.97
2023-06-18T01:19:42.079Z,6.35
2023-06-18T01:22:21.334Z,6.50
2023-06-18T01:24:55.513Z,6.25
2023-06-18T01:27:25.108Z,6.93
2023-06-18T01:29:52.365Z,5.70
2023-06-18T01:32:20.750Z,6.28
2023-06-18T01:34:48.917Z,6.50
2023-06-18T01:37:25.788Z,6.55
2023-06-18T01:39:57.716Z,6.27
2023-06-18T01:42:27.761Z,6.72
2023-06-18T01:45:27.376Z,7.20
2023-06-18T01:47:57.075Z,6.20
2023-06-18T01:50:27.600Z,6.68
2023-06-18T01:52:54.911Z,6.80
2023-06-18T01:55:23.112Z,6.88
2023-06-18T01:57:49.780Z,7.05
2023-06-18T02:00:16.268Z,6.95
2023-06-18T02:02:43.600Z,6.57
2023-06-18T02:05:11.006Z,6.53
2023-06-18T02:07:37.487Z,6.88
2023-06-18T02:10:05.784Z,6.07
2023-06-18T02:12:32.373Z,7.15
2023-06-18T02:14:59.018Z,5.68
2023-06-18T02:17:27.272Z,7.93
2023-06-18T02:19:53.964Z,6.15
2023-06-18T02:22:20.904Z,6.70
2023-06-18T02:24:47.282Z,6.22
2023-06-18T02:27:13.681Z,6.50
2023-06-18T02:29:40.080Z,6.77
2023-06-18T02:32:06.690Z,6.90
2023-06-18T02:34:33.107Z,6.47
2023-06-18T02:36:59.560Z,7.07
2023-06-18T02:39:26.042Z,6.40
2023-06-18T02:41:52.468Z,6.37
2023-06-18T02:44:19.304Z,6.45
2023-06-18T02:46:45.793Z,6.45
2023-06-18T02:49:12.337Z,5.85
2023-06-18T02:51:38.710Z,6.45
2023-06-18T02:54:05.251Z,5.30
2023-06-18T02:56:31.963Z,6.53
2023-06-18T02:58:58.472Z,5.40
2023-06-18T03:01:25.707Z,5.50
2023-06-18T03:03:52.661Z,5.32
2023-06-18T03:06:19.072Z,5.67
2023-06-18T03:08:47.331Z,5.70
2023-06-18T03:11:13.689Z,5.60
2023-06-18T03:13:40.137Z,5.45
2023-06-18T03:16:07.020Z,5.25
2023-06-18T03:18:34.298Z,6.03
2023-06-18T03:21:00.790Z,5.80
2023-06-18T03:23:27.453Z,5.40
2023-06-18T03:25:53.872Z,5.25
2023-06-18T03:28:20.311Z,6.25
2023-06-18T03:30:46.834Z,5.57
2023-06-18T03:33:13.261Z,5.60
2023-06-18T03:35:39.839Z,5.90
2023-06-18T03:38:06.266Z,5.93
2023-06-18T03:40:32.727Z,6.13
2023-06-18T03:42:59.150Z,5.67
2023-06-18T03:45:26.545Z,6.03
2023-06-18T03:47:53.207Z,5.97
2023-06-18T03:50:19.701Z,5.15
2023-06-18T03:52:46.266Z,5.10
2023-06-18T03:55:12.811Z,5.53
2023-06-18T03:57:39.686Z,5.72
2023-06-18T04:00:08.488Z,6.03
2023-06-18T04:02:34.959Z,5.85
2023-06-18T04:05:01.588Z,5.70
2023-06-18T04:07:28.011Z,5.90
2023-06-18T04:09:54.458Z,6.00
2023-06-18T04:12:20.965Z,5.90
2023-06-18T04:14:47.410Z,5.80
2023-06-18T04:17:13.772Z,5.82
2023-06-18T04:19:40.206Z,5.77
2023-06-18T04:22:06.941Z,6.03
2023-06-18T04:24:33.401Z,6.22
2023-06-18T04:26:59.910Z,6.78
2023-06-18T04:29:26.705Z,5.80
2023-06-18T04:31:53.195Z,6.70
2023-06-18T04:34:19.709Z,6.25
2023-06-18T04:36:46.194Z,6.28
2023-06-18T04:39:12.624Z,6.05
2023-06-18T04:41:38.993Z,5.72
2023-06-18T04:44:05.580Z,5.90
2023-06-18T04:46:33.926Z,5.90
2023-06-18T04:49:00.592Z,6.47
2023-06-18T04:51:27.050Z,6.05
2023-06-18T04:53:53.543Z,6.20
2023-06-18T04:56:20.360Z,5.80
2023-06-18T04:58:46.810Z,6.10
2023-06-18T05:01:13.220Z,6.70
2023-06-18T05:03:39.686Z,5.70
2023-06-18T05:06:06.240Z,6.47
2023-06-18T05:08:33.098Z,6.87
2023-06-18T05:10:59.450Z,7.43
2023-06-18T05:13:25.865Z,6.35
2023-06-18T05:15:52.269Z,7.10
2023-06-18T05:18:18.714Z,6.95
2023-06-18T05:20:45.816Z,6.90
2023-06-18T05:23:13.274Z,7.00
2023-06-18T05:25:39.761Z,6.30
2023-06-18T05:28:06.244Z,7.45
2023-06-18T05:30:32.770Z,7.18
2023-06-18T05:32:59.248Z,7.20
2023-06-18T05:35:25.889Z,7.35
2023-06-18T05:37:52.473Z,7.47
2023-06-18T05:40:19.079Z,7.28
2023-06-18T05:42:47.318Z,6.65
2023-06-18T05:45:13.943Z,7.03
2023-06-18T05:47:40.600Z,6.97
2023-06-18T05:50:07.623Z,7.20
2023-06-18T05:52:34.039Z,7.75
2023-06-18T05:55:00.462Z,7.10
2023-06-18T05:57:27.484Z,7.47
2023-06-18T05:59:54.238Z,7.53
2023-06-18T06:02:20.740Z,6.85
2023-06-18T06:04:47.251Z,7.45
2023-06-18T06:07:13.769Z,7.43
2023-06-18T06:09:40.356Z,7.17
2023-06-18T06:12:07.106Z,7.15
2023-06-18T06:14:33.448Z,8.15
2023-06-18T06:16:59.947Z,7.22
2023-06-18T06:19:27.095Z,8.27
2023-06-18T06:21:53.565Z,7.90
2023-06-18T06:26:46.442Z,8.23
2023-06-18T06:29:13.044Z,7.53
2023-06-18T06:31:39.606Z,8.18
2023-06-18T06:34:05.988Z,8.20
2023-06-18T06:36:32.446Z,7.85
2023-06-18T06:38:58.822Z,6.95
2023-06-18T06:41:25.251Z,7.82
2023-06-18T06:43:51.994Z,8.30
2023-06-18T06:46:18.563Z,7.77
2023-06-18T06:48:45.015Z,8.52
2023-06-18T06:51:11.410Z,8.00
2023-06-18T06:53:37.794Z,8.02
2023-06-18T06:56:04.710Z,7.97
2023-06-18T06:58:31.181Z,8.33
2023-06-18T07:00:57.682Z,7.93
2023-06-18T07:03:24.428Z,7.88
2023-06-18T07:05:51.175Z,8.63
2023-06-18T07:08:17.647Z,8.55
2023-06-18T07:10:44.117Z,8.20
2023-06-18T07:13:10.766Z,8.68
2023-06-18T07:15:37.120Z,8.43
2023-06-18T07:18:03.728Z,8.90
2023-06-18T07:20:30.274Z,9.02
2023-06-18T07:22:56.636Z,8.13
2023-06-18T07:25:23.052Z,6.63
2023-06-18T07:27:49.556Z,7.28
2023-06-18T07:30:15.980Z,7.63
2023-06-18T07:32:42.408Z,6.95
2023-06-18T07:35:09.354Z,8.00
2023-06-18T07:37:35.833Z,7.20
2023-06-18T07:40:02.333Z,6.78
2023-06-18T07:42:28.683Z,6.65
2023-06-18T07:44:55.136Z,6.60
2023-06-18T07:47:21.744Z,6.20
2023-06-18T07:49:48.178Z,6.95
2023-06-18T07:52:14.622Z,6.55
2023-06-18T07:54:40.969Z,6.40
2023-06-18T07:57:07.685Z,7.10
2023-06-18T07:59:34.091Z,6.13
2023-06-18T08:02:00.767Z,6.22
2023-06-18T08:04:27.322Z,6.53
2023-06-18T08:06:53.776Z,7.15
2023-06-18T08:09:20.144Z,7.35
2023-06-18T08:11:46.701Z,7.40
2023-06-18T08:14:13.093Z,7.95
2023-06-18T08:16:40.281Z,7.85
2023-06-18T08:19:06.961Z,7.55
2023-06-18T08:21:33.388Z,8.10
2023-06-18T08:23:59.828Z,7.73
2023-06-18T08:26:26.249Z,6.88
2023-06-18T08:28:52.697Z,7.00
2023-06-18T08:31:19.115Z,6.85
2023-06-18T08:33:45.613Z,7.28
2023-06-18T08:36:12.205Z,6.47
2023-06-18T08:38:38.650Z,5.97
2023-06-18T08:41:06.749Z,8.38
2023-06-18T08:43:34.005Z,7.88
2023-06-18T08:46:11.134Z,7.63
2023-06-18T08:48:53.285Z,7.00
2023-06-18T08:51:22.213Z,6.68
2023-06-18T08:53:58.640Z,6.30
2023-06-18T08:56:26.201Z,5.70
2023-06-18T08:58:56.553Z,6.45
2023-06-18T09:01:24.389Z,5.70
2023-06-18T09:03:52.339Z,6.43
2023-06-18T09:06:19.349Z,6.68
2023-06-18T09:08:47.635Z,6.55
2023-06-18T09:11:14.385Z,6.15
2023-06-18T09:13:43.426Z,5.90
2023-06-18T09:16:11.228Z,7.90
2023-06-18T09:18:38.227Z,6.60
2023-06-18T09:21:04.864Z,5.90
2023-06-18T09:23:31.811Z,5.47
2023-06-18T09:25:59.330Z,5.70
2023-06-18T09:28:27.262Z,5.45
2023-06-18T09:30:54.857Z,5.65
2023-06-18T09:33:37.400Z,7.00
2023-06-18T09:36:06.362Z,5.70
2023-06-18T09:38:41.520Z,5.87
2023-06-18T09:41:16.181Z,5.25
2023-06-18T09:43:44.628Z,5.32
2023-06-18T09:46:11.477Z,5.85
2023-06-18T09:48:45.998Z,5.30
2023-06-18T09:51:15.138Z,4.80
2023-06-18T09:53:41.753Z,5.57
2023-06-18T09:56:16.995Z,5.20
2023-06-18T09:58:52.107Z,4.78
2023-06-18T10:01:20.326Z,4.60
2023-06-18T10:03:47.566Z,5.03
2023-06-18T10:06:19.153Z,5.40
2023-06-18T10:08:53.693Z,4.97
2023-06-18T10:11:21.864Z,4.47
2023-06-18T10:13:54.722Z,5.15
2023-06-18T10:16:22.164Z,5.17
2023-06-18T10:19:04.896Z,5.43
2023-06-18T10:21:36.816Z,5.28
2023-06-18T10:24:12.769Z,4.63
2023-06-18T10:26:40.804Z,5.82
2023-06-18T10:29:07.748Z,5.10
2023-06-18T10:31:34.473Z,5.10
2023-06-18T10:34:01.237Z,5.00
2023-06-18T10:36:29.723Z,4.78
2023-06-18T10:38:57.977Z,5.68
2023-06-18T10:41:24.922Z,4.83
2023-06-18T10:43:53.248Z,5.10
2023-06-18T10:46:20.762Z,5.38
2023-06-18T10:49:17.091Z,5.25
2023-06-18T10:52:11.304Z,5.28
2023-06-18T10:54:39.256Z,4.93
2023-06-18T10:57:05.955Z,5.10
2023-06-18T10:59:46.888Z,4.38
2023-06-18T11:02:14.851Z,5.20
2023-06-18T11:04:42.093Z,5.43
2023-06-18T11:07:16.188Z,5.20
2023-06-18T11:09:58.991Z,5.35
2023-06-18T11:12:28.941Z,5.10
2023-06-18T11:15:05.012Z,5.60
2023-06-18T11:17:33.340Z,5.97
2023-06-18T11:20:01.905Z,6.03
2023-06-18T11:22:29.938Z,6.03
2023-06-18T11:24:58.394Z,6.03
2023-06-18T11:27:26.572Z,6.05
2023-06-18T11:29:59.519Z,6.07
2023-06-18T11:32:27.137Z,5.83
2023-06-18T11:34:56.791Z,6.07
2023-06-18T11:37:29.224Z,6.70
2023-06-18T11:39:57.300Z,5.93
2023-06-18T11:42:27.051Z,5.75
2023-06-18T11:44:56.437Z,6.00
2023-06-18T11:47:23.188Z,5.95
2023-06-18T11:49:52.579Z,5.97
2023-06-18T11:52:24.148Z,5.88
2023-06-18T11:54:52.431Z,5.60
2023-06-18T11:57:21.300Z,6.13
2023-06-18T11:59:51.726Z,6.18
2023-06-18T12:02:20.817Z,6.07
2023-06-18T12:04:47.720Z,5.93
2023-06-18T12:07:18.795Z,7.18
2023-06-18T12:09:46.318Z,5.80
2023-06-18T12:12:42.949Z,5.47
2023-06-18T12:15:15.436Z,6.28
2023-06-18T12:18:14.164Z,5.70
2023-06-18T12:20:41.240Z,5.40
2023-06-18T12:23:08.192Z,5.80
2023-06-18T12:25:35.278Z,5.78
2023-06-18T12:28:05.922Z,5.97
2023-06-18T12:30:36.321Z,5.90
2023-06-18T12:33:08.871Z,5.80
2023-06-18T12:35:37.046Z,6.37
2023-06-18T12:38:09.643Z,5.85
2023-06-18T12:40:50.148Z,6.53
2023-06-18T12:43:18.312Z,6.18
2023-06-18T12:45:52.446Z,6.38
2023-06-18T12:48:22.411Z,6.27
2023-06-18T12:50:50.937Z,6.65
2023-06-18T12:53:25.678Z,6.45
2023-06-18T12:55:55.880Z,6.30
2023-06-18T12:58:27.770Z,6.53
2023-06-18T13:00:57.236Z,6.20
2023-06-18T13:03:25.363Z,6.15
2023-06-18T13:05:52.383Z,5.93
2023-06-18T13:08:20.967Z,6.40
2023-06-18T13:10:49.627Z,5.32
2023-06-18T13:13:20.474Z,5.13
2023-06-18T13:15:49.260Z,5.35
2023-06-18T13:18:19.866Z,5.50
2023-06-18T13:20:47.889Z,5.32
2023-06-18T13:23:15.417Z,4.90
2023-06-18T13:25:42.562Z,5.70
2023-06-18T13:28:09.479Z,6.03
2023-06-18T13:30:35.927Z,5.20
2023-06-18T13:33:02.676Z,5.10
2023-06-18T13:35:31.249Z,5.82
2023-06-18T13:37:58.142Z,5.77
2023-06-18T13:40:24.814Z,5.63
2023-06-18T13:42:52.019Z,5.18
2023-06-18T13:45:20.817Z,5.10
2023-06-18T13:47:48.201Z,4.90
2023-06-18T13:50:15.003Z,4.87
2023-06-18T13:52:41.377Z,4.65
2023-06-18T13:55:08.266Z,5.72
2023-06-18T13:57:34.721Z,5.35
2023-06-18T14:00:01.129Z,5.53
2023-06-18T14:02:27.614Z,5.60
2023-06-18T14:04:55.311Z,5.75
2023-06-18T14:07:22.274Z,5.75
2023-06-18T14:09:48.852Z,6.03
2023-06-18T14:12:16.352Z,5.90
2023-06-18T14:14:43.481Z,6.40
2023-06-18T14:17:12.874Z,6.07
2023-06-18T14:19:40.846Z,5.57
2023-06-18T14:22:07.654Z,5.88
2023-06-18T14:24:35.769Z,5.90
2023-06-18T14:27:03.381Z,4.90
2023-06-18T14:29:33.513Z,4.63
2023-06-18T14:32:00.797Z,4.25
2023-06-18T14:34:27.237Z,4.85
2023-06-18T14:36:56.266Z,4.78
2023-06-18T14:39:24.132Z,4.27
2023-06-18T14:41:52.440Z,3.97
2023-06-18T14:44:19.545Z,4.25
2023-06-18T14:46:46.109Z,4.25
2023-06-18T14:49:12.565Z,3.78
2023-06-18T14:51:38.934Z,4.10
2023-06-18T14:54:12.763Z,4.28
2023-06-18T14:56:43.945Z,4.20
2023-06-18T14:59:10.769Z,4.03
2023-06-18T15:01:38.372Z,3.53
2023-06-18T15:04:05.309Z,4.33
2023-06-18T15:06:33.789Z,3.92
2023-06-18T15:09:01.608Z,4.40
2023-06-18T15:11:28.739Z,4.20
2023-06-18T15:13:55.256Z,4.47
2023-06-18T15:16:21.778Z,4.27
2023-06-18T15:18:48.239Z,4.22
2023-06-18T15:21:14.745Z,4.72
2023-06-18T15:23:41.717Z,4.03
2023-06-18T15:26:08.164Z,4.28
2023-06-18T15:28:34.518Z,4.00
2023-06-18T15:31:00.901Z,4.40
2023-06-18T15:33:27.264Z,4.13
2023-06-18T15:35:53.675Z,3.83
2023-06-18T15:38:20.074Z,4.20
2023-06-18T15:40:46.620Z,3.60
2023-06-18T15:43:13.124Z,3.80
2023-06-18T15:45:39.566Z,3.70
2023-06-18T15:48:06.128Z,3.53
2023-06-18T15:50:32.617Z,4.00
2023-06-18T15:52:59.096Z,4.33
2023-06-18T15:55:25.633Z,3.80
2023-06-18T15:57:52.191Z,3.70
2023-06-18T16:00:18.609Z,3.85
2023-06-18T16:02:44.999Z,4.10
2023-06-18T16:05:11.531Z,3.70
2023-06-18T16:07:39.533Z,3.90
2023-06-18T16:10:06.794Z,3.90
2023-06-18T16:12:33.218Z,4.28
2023-06-18T16:14:59.639Z,4.13
2023-06-18T16:17:28.683Z,3.93
2023-06-18T16:19:55.506Z,4.78
2023-06-18T16:22:21.944Z,3.85
2023-06-18T16:24:48.387Z,3.28
2023-06-18T16:27:14.845Z,5.40
2023-06-18T16:29:41.210Z,3.87
2023-06-18T16:32:11.950Z,3.80
2023-06-18T16:34:39.429Z,4.18
2023-06-18T16:37:06.218Z,3.60
2023-06-18T16:39:37.597Z,3.90
2023-06-18T16:42:04.475Z,3.43
2023-06-18T16:44:30.933Z,3.70
2023-06-18T16:46:57.950Z,3.80
2023-06-18T16:49:24.405Z,3.85
2023-06-18T16:51:50.837Z,3.92
2023-06-18T16:54:17.219Z,4.27
2023-06-18T16:56:44.507Z,4.20
2023-06-18T16:59:11.056Z,4.40
2023-06-18T17:01:37.777Z,4.45
2023-06-18T17:04:04.887Z,3.97
2023-06-18T17:06:33.386Z,4.50
2023-06-18T17:09:00.490Z,4.43
2023-06-18T17:11:28.429Z,4.28
2023-06-18T17:13:55.030Z,4.30
2023-06-18T17:16:22.599Z,4.30
2023-06-18T17:18:49.082Z,4.27
2023-06-18T17:21:16.549Z,4.28
2023-06-18T17:23:43.216Z,4.53
2023-06-18T17:26:11.188Z,4.03
2023-06-18T17:28:37.733Z,4.70
2023-06-18T17:31:04.391Z,3.97
2023-06-18T17:33:30.770Z,4.45
2023-06-18T17:35:57.173Z,4.10
2023-06-18T17:38:23.748Z,4.70
2023-06-18T17:40:50.149Z,7.43
2023-06-18T17:43:17.486Z,5.63
2023-06-18T17:45:44.962Z,5.35
2023-06-18T17:48:11.572Z,4.95
2023-06-18T17:50:38.037Z,5.05
2023-06-18T17:53:04.504Z,4.80
2023-06-18T17:55:32.619Z,5.43
2023-06-18T17:57:59.012Z,4.93
2023-06-18T18:00:25.377Z,5.03
2023-06-18T18:02:54.224Z,4.80
2023-06-18T18:05:21.009Z,4.72
2023-06-18T18:07:47.728Z,5.00
2023-06-18T18:10:14.122Z,5.13
2023-06-18T18:12:40.504Z,5.50
2023-06-18T18:15:07.299Z,5.10
2023-06-18T18:17:33.683Z,5.22
2023-06-18T18:20:00.219Z,5.30
2023-06-18T18:22:26.620Z,5.65
2023-06-18T18:24:53.037Z,5.28
2023-06-18T18:27:19.513Z,5.32
2023-06-18T18:29:45.972Z,5.28
2023-06-18T18:32:12.391Z,5.30
2023-06-18T18:34:38.806Z,5.38
2023-06-18T18:37:05.852Z,5.50
2023-06-18T18:39:32.292Z,5.25
2023-06-18T18:41:58.730Z,5.72
2023-06-18T18:44:25.149Z,5.10
2023-06-18T18:46:51.534Z,4.95
2023-06-18T18:49:18.064Z,5.25
2023-06-18T18:51:44.567Z,5.43
2023-06-18T18:54:13.270Z,5.20
2023-06-18T18:56:40.105Z,4.90
2023-06-18T18:59:06.592Z,5.38
2023-06-18T19:01:32.999Z,5.20
2023-06-18T19:03:59.345Z,5.18
2023-06-18T19:06:25.797Z,5.55
2023-06-18T19:08:52.211Z,5.30
2023-06-18T19:11:18.638Z,5.15
2023-06-18T19:13:45.593Z,5.32
2023-06-18T19:16:12.068Z,5.13
2023-06-18T19:18:38.619Z,5.22
2023-06-18T19:21:05.394Z,5.97
2023-06-18T19:23:31.918Z,5.72
2023-06-18T19:25:58.521Z,5.65
2023-06-18T19:28:26.039Z,5.32
2023-06-18T19:30:52.433Z,5.35
2023-06-18T19:33:18.819Z,6.47
2023-06-18T19:35:45.187Z,5.80
2023-06-18T19:38:11.935Z,6.00
2023-06-18T19:40:38.715Z,5.85
2023-06-18T19:43:05.521Z,5.70
2023-06-18T19:45:33.176Z,5.47
2023-06-18T19:48:00.046Z,6.07
2023-06-18T19:50:26.678Z,6.10
2023-06-18T19:52:53.196Z,5.35
2023-06-18T19:55:21.117Z,5.28
2023-06-18T19:57:47.655Z,6.03
2023-06-18T20:00:14.303Z,5.85
2023-06-18T20:02:41.031Z,6.22
2023-06-18T20:05:07.803Z,5.90
2023-06-18T20:07:34.235Z,7.13
2023-06-18T20:10:04.561Z,6.10
2023-06-18T20:12:31.251Z,5.70
2023-06-18T20:14:57.721Z,6.68
2023-06-18T20:17:25.264Z,6.97
2023-06-18T20:19:52.412Z,5.18
2023-06-18T20:22:19.331Z,6.63
2023-06-18T20:24:45.704Z,6.25
2023-06-18T20:27:12.608Z,6.00
2023-06-18T20:29:39.016Z,5.97
2023-06-18T20:32:06.000Z,6.30
2023-06-18T20:34:32.490Z,6.37
2023-06-18T20:36:58.912Z,5.97
2023-06-18T20:39:25.399Z,6.07
2023-06-18T20:41:51.900Z,6.82
2023-06-18T20:44:19.095Z,5.75
2023-06-18T20:46:45.575Z,5.80
2023-06-18T20:49:14.621Z,5.88
2023-06-18T20:51:41.844Z,6.10
2023-06-18T20:54:08.363Z,5.85
2023-06-18T20:56:34.807Z,6.10
2023-06-18T20:59:01.200Z,6.00
2023-06-18T21:01:30.287Z,6.57
2023-06-18T21:03:57.077Z,6.75
2023-06-18T21:06:23.876Z,6.63
2023-06-18T21:08:50.388Z,6.05
2023-06-18T21:11:19.194Z,6.23
2023-06-18T21:13:47.258Z,6.43
2023-06-18T21:16:14.522Z,6.40
2023-06-18T21:18:41.179Z,6.20
2023-06-18T21:21:07.676Z,6.30
2023-06-18T21:23:34.046Z,5.70
2023-06-18T21:26:00.570Z,5.93
2023-06-18T21:28:27.567Z,6.80
2023-06-18T21:30:54.042Z,6.38
2023-06-18T21:33:20.640Z,6.20
2023-06-18T21:35:48.670Z,6.03
2023-06-18T21:38:15.434Z,6.20
2023-06-18T21:40:41.826Z,5.93
2023-06-18T21:43:08.268Z,6.28
2023-06-18T21:45:35.075Z,6.25
2023-06-18T21:48:01.627Z,6.77
2023-06-18T21:50:28.096Z,6.22
2023-06-18T21:52:54.478Z,6.28
2023-06-18T21:55:20.894Z,6.75
2023-06-18T21:57:47.314Z,5.97
2023-06-18T22:00:14.255Z,6.10
2023-06-18T22:02:41.255Z,6.35
2023-06-18T22:05:08.205Z,6.60
2023-06-18T22:07:34.900Z,6.10
2023-06-18T22:10:01.332Z,6.40
2023-06-18T22:12:28.003Z,6.73
2023-06-18T22:14:54.370Z,6.25
2023-06-18T22:17:20.986Z,6.93
2023-06-18T22:19:47.412Z,6.78
2023-06-18T22:22:13.823Z,5.65
2023-06-18T22:24:40.381Z,6.23
2023-06-18T22:27:07.445Z,6.15
2023-06-18T22:29:34.002Z,5.45
2023-06-18T22:32:00.427Z,6.25
2023-06-18T22:34:40.454Z,5.97
2023-06-18T22:37:08.613Z,6.57
2023-06-18T22:39:35.098Z,6.07
2023-06-18T22:42:01.535Z,6.10
2023-06-18T22:44:28.001Z,6.55
2023-06-18T22:46:54.485Z,5.88
2023-06-18T22:49:21.033Z,6.33
2023-06-18T22:51:54.482Z,6.00
2023-06-18T22:54:20.942Z,5.97
2023-06-18T22:56:47.327Z,6.15
2023-06-18T22:59:13.813Z,7.10
2023-06-18T23:01:41.209Z,6.03
2023-06-18T23:04:07.736Z,6.00
2023-06-18T23:06:34.213Z,6.10
2023-06-18T23:09:00.625Z,6.22
2023-06-18T23:11:26.986Z,5.82
2023-06-18T23:13:53.369Z,6.20
2023-06-18T23:16:19.862Z,6.05
2023-06-18T23:18:46.342Z,6.45
2023-06-18T23:21:12.891Z,6.20
2023-06-18T23:23:39.353Z,6.07
2023-06-18T23:26:06.115Z,6.10
2023-06-18T23:28:33.281Z,5.82
2023-06-18T23:31:05.072Z,5.75
2023-06-18T23:33:32.369Z,5.43
2023-06-18T23:35:59.232Z,5.85
2023-06-18T23:38:25.662Z,6.53
2023-06-18T23:40:52.555Z,5.85
2023-06-18T23:43:20.167Z,5.75
2023-06-18T23:45:47.039Z,5.45
2023-06-18T23:48:13.577Z,5.95
2023-06-18T23:50:41.361Z,5.80
2023-06-18T23:53:08.025Z,5.63
2023-06-18T23:55:34.400Z,6.03
2023-06-18T23:58:02.674Z,6.10
